La rose des vents
Donnes mto: Semaine 08/05/23 - 14/05/23 (S 19)
Date Horaire Temp. E. Hum. E. P.atmo. Pluie Vent 1mn Direction Ensoleilleme Ev.Tr. Solaire P. de rose Temp au vent Rafales
08/05/2023 00:00 14,1 C 91 % 1015,8 hPa 0,0 mm 0,0 km/h (0 Bft) N 0,00 h 0,000 mm 0 W/m 12,6 C 14,1 C 0,0 km/h (0 Bft)
08/05/2023 01:00 13,6 C 90 % 1015,5 hPa 0,0 mm 0,0 km/h (0 Bft) N 0,00 h 0,000 mm 0 W/m 12,1 C 13,6 C 0,0 km/h (0 Bft)
08/05/2023 02:00 13,1 C 91 % 1015,4 hPa 0,0 mm 0,0 km/h (0 Bft) N 0,00 h 0,000 mm 0 W/m 11,7 C 13,1 C 0,0 km/h (0 Bft)
08/05/2023 03:00 13,3 C 94 % 1015,5 hPa 0,0 mm 0,0 km/h (0 Bft) N 0,00 h 0,000 mm 0 W/m 12,4 C 13,3 C 0,0 km/h (0 Bft)
08/05/2023 04:00 13,5 C 95 % 1015,4 hPa 0,0 mm 0,0 km/h (0 Bft) N 0,00 h 0,000 mm 0 W/m 12,7 C 13,5 C 0,0 km/h (0 Bft)
08/05/2023 05:00 12,8 C 94 % 1015,3 hPa 0,0 mm 0,0 km/h (0 Bft) N 0,00 h 0,000 mm 0 W/m 11,8 C 12,8 C 0,0 km/h (0 Bft)
08/05/2023 06:00 12,3 C 92 % 1015,5 hPa 0,0 mm 0,0 km/h (0 Bft) N 0,00 h 0,000 mm 11 W/m 11,0 C 12,3 C 0,0 km/h (0 Bft)
08/05/2023 07:00 12,9 C 90 % 1015,6 hPa 0,0 mm 0,0 km/h (0 Bft) N 0,00 h 0,000 mm 26 W/m 11,3 C 12,9 C 0,0 km/h (0 Bft)
08/05/2023 08:00 14,3 C 87 % 1016,1 hPa 0,0 mm 0,0 km/h (0 Bft) N 0,08 h 0,025 mm 81 W/m 12,2 C 14,3 C 0,0 km/h (0 Bft)
08/05/2023 09:00 18,3 C 75 % 1016,2 hPa 0,0 mm 0,6 km/h (0 Bft) E 1,00 h 0,051 mm 487 W/m 13,7 C 18,3 C 1,8 km/h (1 Bft)
08/05/2023 10:00 21,5 C 64 % 1015,9 hPa 0,0 mm 2,5 km/h (1 Bft) S-SE 1,00 h 0,279 mm 644 W/m 14,3 C 21,5 C 6,0 km/h (2 Bft)
08/05/2023 11:00 22,5 C 59 % 1016,3 hPa 0,0 mm 4,2 km/h (1 Bft) E 1,00 h 0,406 mm 766 W/m 14,1 C 22,5 C 10,6 km/h (2 Bft)
08/05/2023 12:00 22,9 C 57 % 1016,5 hPa 0,0 mm 4,4 km/h (1 Bft) E 1,00 h 0,483 mm 844 W/m 14,0 C 22,9 C 9,9 km/h (2 Bft)
08/05/2023 13:00 23,4 C 57 % 1016,4 hPa 0,0 mm 3,4 km/h (1 Bft) SE 1,00 h 0,533 mm 867 W/m 14,3 C 23,4 C 8,5 km/h (2 Bft)
08/05/2023 14:00 23,8 C 53 % 1016,4 hPa 0,0 mm 3,8 km/h (1 Bft) E 1,00 h 0,559 mm 839 W/m 13,6 C 23,8 C 9,3 km/h (2 Bft)
08/05/2023 15:00 24,1 C 52 % 1016,4 hPa 0,0 mm 1,0 km/h (0 Bft) E 0,57 h 0,533 mm 527 W/m 13,6 C 24,1 C 3,7 km/h (1 Bft)
08/05/2023 16:00 22,7 C 56 % 1016,2 hPa 0,0 mm 1,4 km/h (1 Bft) S 0,10 h 0,330 mm 292 W/m 13,5 C 22,7 C 3,8 km/h (1 Bft)
08/05/2023 17:00 22,1 C 54 % 1015,8 hPa 0,0 mm 1,4 km/h (1 Bft) S-SE 0,33 h 0,178 mm 289 W/m 12,3 C 22,1 C 3,4 km/h (1 Bft)
08/05/2023 18:00 22,5 C 54 % 1016,0 hPa 0,0 mm 0,7 km/h (0 Bft) S-SE 0,88 h 0,178 mm 282 W/m 12,9 C 22,5 C 2,5 km/h (1 Bft)
08/05/2023 19:00 21,4 C 56 % 1016,3 hPa 0,0 mm 0,0 km/h (0 Bft) N 0,07 h 0,178 mm 53 W/m 12,3 C 21,4 C 0,1 km/h (0 Bft)
08/05/2023 20:00 19,7 C 61 % 1016,9 hPa 0,0 mm 0,0 km/h (0 Bft) N 0,00 h 0,051 mm 11 W/m 12,1 C 19,7 C 0,0 km/h (0 Bft)
08/05/2023 21:00 18,3 C 63 % 1017,2 hPa 0,0 mm 0,0 km/h (0 Bft) N 0,00 h 0,025 mm 0 W/m 11,2 C 18,3 C 0,0 km/h (0 Bft)
08/05/2023 22:00 17,6 C 67 % 1017,5 hPa 0,0 mm 0,0 km/h (0 Bft) N 0,00 h 0,000 mm 0 W/m 11,3 C 17,6 C 0,0 km/h (0 Bft)
08/05/2023 23:00 16,9 C 70 % 1017,4 hPa 0,0 mm 0,0 km/h (0 Bft) N 0,00 h 0,025 mm 0 W/m 11,3 C 16,9 C 0,0 km/h (0 Bft)
09/05/2023 00:00 16,9 C 71 % 1017,1 hPa 0,0 mm 0,0 km/h (0 Bft) N 0,00 h 0,025 mm 0 W/m 11,7 C 16,9 C 0,0 km/h (0 Bft)
09/05/2023 01:00 17,1 C 76 % 1016,9 hPa 0,0 mm 0,0 km/h (0 Bft) S-SE 0,00 h 0,025 mm 0 W/m 13,0 C 17,1 C 0,4 km/h (0 Bft)
09/05/2023 02:00 17,0 C 77 % 1016,5 hPa 0,0 mm 0,0 km/h (0 Bft) N 0,00 h 0,025 mm 0 W/m 12,9 C 17,0 C 0,0 km/h (0 Bft)
09/05/2023 03:00 16,8 C 77 % 1016,1 hPa 0,0 mm 0,0 km/h (0 Bft) N 0,00 h 0,025 mm 0 W/m 12,6 C 16,8 C 0,0 km/h (0 Bft)
09/05/2023 04:00 17,1 C 76 % 1016,0 hPa 0,0 mm 0,0 km/h (0 Bft) N 0,00 h 0,025 mm 0 W/m 12,9 C 17,1 C 0,0 km/h (0 Bft)
09/05/2023 05:00 16,7 C 77 % 1016,0 hPa 0,0 mm 0,0 km/h (0 Bft) N 0,00 h 0,025 mm 0 W/m 12,7 C 16,7 C 0,0 km/h (0 Bft)
09/05/2023 06:00 15,7 C 82 % 1016,1 hPa 0,0 mm 0,0 km/h (0 Bft) N 0,00 h 0,000 mm 21 W/m 12,7 C 15,7 C 0,0 km/h (0 Bft)
09/05/2023 07:00 15,9 C 84 % 1016,5 hPa 0,0 mm 0,0 km/h (0 Bft) N 0,00 h 0,025 mm 69 W/m 13,2 C 15,9 C 0,0 km/h (0 Bft)
09/05/2023 08:00 17,6 C 80 % 1016,3 hPa 0,0 mm 0,0 km/h (0 Bft) N 0,20 h 0,051 mm 198 W/m 14,1 C 17,6 C 0,0 km/h (0 Bft)
09/05/2023 09:00 20,2 C 71 % 1015,9 hPa 0,0 mm 0,0 km/h (0 Bft) S-SE 0,78 h 0,102 mm 391 W/m 14,7 C 20,2 C 0,1 km/h (0 Bft)
09/05/2023 10:00 22,3 C 65 % 1015,8 hPa 0,0 mm 1,1 km/h (1 Bft) E-SE 0,75 h 0,229 mm 505 W/m 15,5 C 22,3 C 2,7 km/h (1 Bft)
09/05/2023 11:00 22,9 C 64 % 1015,8 hPa 0,0 mm 2,4 km/h (1 Bft) E-SE 0,90 h 0,305 mm 563 W/m 15,8 C 22,9 C 5,7 km/h (1 Bft)
09/05/2023 12:00 22,6 C 67 % 1015,5 hPa 0,0 mm 4,0 km/h (1 Bft) E 1,00 h 0,356 mm 586 W/m 16,2 C 22,6 C 8,4 km/h (2 Bft)
09/05/2023 13:00 23,8 C 67 % 1015,0 hPa 0,0 mm 2,9 km/h (1 Bft) E 1,00 h 0,381 mm 794 W/m 17,3 C 23,8 C 7,1 km/h (2 Bft)
09/05/2023 14:00 24,8 C 60 % 1014,4 hPa 0,0 mm 3,3 km/h (1 Bft) E 0,85 h 0,508 mm 732 W/m 16,5 C 24,8 C 8,2 km/h (2 Bft)
09/05/2023 15:00 24,1 C 53 % 1013,9 hPa 0,0 mm 6,2 km/h (2 Bft) S 0,62 h 0,483 mm 503 W/m 14,0 C 24,1 C 11,9 km/h (2 Bft)
09/05/2023 16:00 22,7 C 48 % 1013,4 hPa 0,0 mm 3,5 km/h (1 Bft) S 0,20 h 0,356 mm 304 W/m 11,2 C 22,7 C 7,7 km/h (2 Bft)
09/05/2023 17:00 21,9 C 60 % 1013,1 hPa 0,0 mm 0,2 km/h (0 Bft) S-SE 0,00 h 0,229 mm 155 W/m 13,6 C 21,9 C 1,1 km/h (1 Bft)
09/05/2023 18:00 20,3 C 73 % 1012,7 hPa 0,0 mm 0,0 km/h (0 Bft) N 0,00 h 0,102 mm 105 W/m 15,2 C 20,3 C 0,1 km/h (0 Bft)
09/05/2023 19:00 19,2 C 76 % 1012,2 hPa 0,0 mm 0,0 km/h (0 Bft) N 0,00 h 0,076 mm 23 W/m 14,9 C 19,2 C 0,0 km/h (0 Bft)
09/05/2023 20:00 18,0 C 84 % 1011,9 hPa 0,2 mm 0,0 km/h (0 Bft) N 0,00 h 0,025 mm 7 W/m 15,3 C 18,0 C 0,0 km/h (0 Bft)
09/05/2023 21:00 17,2 C 89 % 1011,3 hPa 0,0 mm 0,0 km/h (0 Bft) N 0,00 h 0,000 mm 0 W/m 15,4 C 17,2 C 0,0 km/h (0 Bft)
09/05/2023 22:00 16,5 C 92 % 1010,8 hPa 0,0 mm 1,1 km/h (1 Bft) O-SO 0,00 h 0,000 mm 0 W/m 15,2 C 16,5 C 3,0 km/h (1 Bft)
09/05/2023 23:00 15,9 C 91 % 1009,8 hPa 0,0 mm 0,6 km/h (0 Bft) O-SO 0,00 h 0,000 mm 0 W/m 14,5 C 15,9 C 1,3 km/h (1 Bft)
10/05/2023 00:00 15,6 C 90 % 1009,3 hPa 0,0 mm 0,0 km/h (0 Bft) O-SO 0,00 h 0,000 mm 0 W/m 13,9 C 15,6 C 0,1 km/h (0 Bft)
10/05/2023 01:00 15,1 C 90 % 1008,8 hPa 0,0 mm 0,0 km/h (0 Bft) N 0,00 h 0,000 mm 0 W/m 13,4 C 15,1 C 0,0 km/h (0 Bft)
10/05/2023 02:00 14,7 C 91 % 1008,3 hPa 0,0 mm 0,0 km/h (0 Bft) N 0,00 h 0,000 mm 0 W/m 13,2 C 14,7 C 0,0 km/h (0 Bft)
10/05/2023 03:00 14,5 C 93 % 1007,8 hPa 0,0 mm 0,0 km/h (0 Bft) N 0,00 h 0,000 mm 0 W/m 13,3 C 14,5 C 0,0 km/h (0 Bft)
10/05/2023 04:00 14,5 C 95 % 1007,7 hPa 0,0 mm 0,0 km/h (0 Bft) N 0,00 h 0,000 mm 0 W/m 13,7 C 14,5 C 0,0 km/h (0 Bft)
10/05/2023 05:00 14,4 C 96 % 1007,7 hPa 0,0 mm 0,1 km/h (0 Bft) O-SO 0,00 h 0,000 mm 0 W/m 13,7 C 14,4 C 0,2 km/h (0 Bft)
10/05/2023 06:00 13,8 C 96 % 1007,7 hPa 0,2 mm 0,0 km/h (0 Bft) N 0,00 h 0,000 mm 13 W/m 13,2 C 13,8 C 0,2 km/h (0 Bft)
10/05/2023 07:00 14,2 C 97 % 1008,1 hPa 0,0 mm 0,1 km/h (0 Bft) O-SO 0,00 h 0,000 mm 32 W/m 13,7 C 14,2 C 0,6 km/h (0 Bft)
10/05/2023 08:00 15,8 C 95 % 1008,5 hPa 0,0 mm 1,4 km/h (1 Bft) O-SO 0,10 h 0,025 mm 97 W/m 14,9 C 15,8 C 4,1 km/h (1 Bft)
10/05/2023 09:00 19,1 C 82 % 1008,6 hPa 0,0 mm 2,2 km/h (1 Bft) SO 0,97 h 0,051 mm 616 W/m 15,9 C 19,1 C 5,2 km/h (1 Bft)
10/05/2023 10:00 20,5 C 71 % 1008,9 hPa 0,0 mm 1,8 km/h (1 Bft) S-SO 0,28 h 0,356 mm 344 W/m 15,2 C 20,5 C 4,2 km/h (1 Bft)
10/05/2023 11:00 21,2 C 69 % 1009,1 hPa 0,0 mm 6,1 km/h (2 Bft) S 0,67 h 0,203 mm 692 W/m 15,2 C 21,2 C 11,7 km/h (2 Bft)
10/05/2023 12:00 23,1 C 60 % 1009,2 hPa 0,0 mm 7,1 km/h (2 Bft) S-SE 1,00 h 0,432 mm 880 W/m 14,8 C 23,1 C 13,8 km/h (3 Bft)
10/05/2023 13:00 23,1 C 60 % 1009,0 hPa 0,0 mm 7,7 km/h (2 Bft) S-SE 1,00 h 0,559 mm 903 W/m 14,9 C 23,1 C 14,5 km/h (3 Bft)
10/05/2023 14:00 23,4 C 55 % 1008,8 hPa 0,0 mm 8,5 km/h (2 Bft) S 1,00 h 0,584 mm 867 W/m 13,8 C 23,4 C 16,1 km/h (3 Bft)
10/05/2023 15:00 23,5 C 59 % 1008,7 hPa 0,0 mm 4,2 km/h (1 Bft) E 0,80 h 0,584 mm 719 W/m 15,1 C 23,5 C 11,7 km/h (2 Bft)
10/05/2023 16:00 23,0 C 57 % 1008,8 hPa 0,0 mm 3,8 km/h (1 Bft) E 0,93 h 0,457 mm 693 W/m 13,9 C 23,0 C 10,9 km/h (2 Bft)
10/05/2023 17:00 21,5 C 63 % 1009,0 hPa 0,0 mm 2,0 km/h (1 Bft) N 0,20 h 0,432 mm 268 W/m 14,1 C 21,5 C 9,1 km/h (2 Bft)
10/05/2023 18:00 20,6 C 62 % 1009,1 hPa 0,0 mm 1,4 km/h (1 Bft) N-NE 0,67 h 0,178 mm 275 W/m 13,1 C 20,6 C 7,4 km/h (2 Bft)
10/05/2023 19:00 19,8 C 60 % 1009,1 hPa 0,0 mm 0,7 km/h (0 Bft) N-NE 0,67 h 0,178 mm 120 W/m 11,8 C 19,8 C 3,6 km/h (1 Bft)
10/05/2023 20:00 17,9 C 63 % 1009,5 hPa 0,0 mm 0,0 km/h (0 Bft) N 0,00 h 0,076 mm 13 W/m 10,8 C 17,9 C 0,0 km/h (0 Bft)
10/05/2023 21:00 16,2 C 67 % 1009,5 hPa 0,0 mm 0,0 km/h (0 Bft) N 0,00 h 0,025 mm 0 W/m 10,1 C 16,2 C 0,0 km/h (0 Bft)
10/05/2023 22:00 15,6 C 69 % 1009,5 hPa 0,0 mm 0,0 km/h (0 Bft) N 0,00 h 0,000 mm 0 W/m 9,9 C 15,6 C 0,0 km/h (0 Bft)
10/05/2023 23:00 15,1 C 70 % 1009,3 hPa 0,0 mm 0,0 km/h (0 Bft) N 0,00 h 0,025 mm 0 W/m 9,7 C 15,1 C 0,0 km/h (0 Bft)
11/05/2023 00:00 14,4 C 72 % 1009,4 hPa 0,0 mm 0,0 km/h (0 Bft) N 0,00 h 0,025 mm 0 W/m 9,5 C 14,4 C 0,0 km/h (0 Bft)
11/05/2023 01:00 13,8 C 76 % 1009,6 hPa 0,0 mm 0,0 km/h (0 Bft) N 0,00 h 0,025 mm 0 W/m 9,7 C 13,8 C 0,2 km/h (0 Bft)
11/05/2023 02:00 13,3 C 78 % 1009,5 hPa 0,0 mm 0,1 km/h (0 Bft) N 0,00 h 0,025 mm 0 W/m 9,5 C 13,3 C 0,5 km/h (0 Bft)
11/05/2023 03:00 13,4 C 75 % 1009,3 hPa 0,0 mm 0,0 km/h (0 Bft) N 0,00 h 0,025 mm 0 W/m 9,2 C 13,4 C 0,0 km/h (0 Bft)
11/05/2023 04:00 13,5 C 75 % 1009,4 hPa 0,0 mm 0,0 km/h (0 Bft) N 0,00 h 0,025 mm 0 W/m 9,2 C 13,5 C 0,2 km/h (0 Bft)
11/05/2023 05:00 13,7 C 74 % 1009,4 hPa 0,0 mm 0,0 km/h (0 Bft) N 0,00 h 0,025 mm 0 W/m 9,3 C 13,7 C 0,0 km/h (0 Bft)
11/05/2023 06:00 13,9 C 75 % 1009,3 hPa 0,0 mm 1,1 km/h (0 Bft) O 0,00 h 0,000 mm 16 W/m 9,6 C 13,9 C 3,4 km/h (1 Bft)
11/05/2023 07:00 14,6 C 74 % 1009,6 hPa 0,0 mm 1,6 km/h (1 Bft) O-SO 0,00 h 0,025 mm 62 W/m 10,1 C 14,6 C 4,6 km/h (1 Bft)
11/05/2023 08:00 15,6 C 72 % 1009,6 hPa 0,0 mm 2,9 km/h (1 Bft) O-SO 0,02 h 0,051 mm 120 W/m 10,6 C 15,6 C 8,0 km/h (2 Bft)
11/05/2023 09:00 18,4 C 64 % 1009,6 hPa 0,0 mm 4,6 km/h (1 Bft) SO 0,67 h 0,076 mm 468 W/m 11,3 C 18,4 C 10,3 km/h (2 Bft)
11/05/2023 10:00 21,0 C 51 % 1009,5 hPa 0,0 mm 5,7 km/h (1 Bft) S-SO 1,00 h 0,305 mm 730 W/m 10,4 C 21,0 C 11,8 km/h (2 Bft)
11/05/2023 11:00 21,3 C 48 % 1009,5 hPa 0,0 mm 4,2 km/h (1 Bft) SO 0,45 h 0,457 mm 589 W/m 9,8 C 21,3 C 8,9 km/h (2 Bft)
11/05/2023 12:00 21,2 C 47 % 1009,1 hPa 0,0 mm 6,9 km/h (2 Bft) S 0,32 h 0,381 mm 472 W/m 9,3 C 21,2 C 12,2 km/h (2 Bft)
11/05/2023 13:00 22,4 C 43 % 1008,5 hPa 0,0 mm 11,5 km/h (2 Bft) S 0,92 h 0,356 mm 890 W/m 9,2 C 22,4 C 19,7 km/h (3 Bft)
11/05/2023 14:00 22,3 C 44 % 1008,7 hPa 0,0 mm 7,2 km/h (2 Bft) S 0,60 h 0,635 mm 748 W/m 9,3 C 22,3 C 13,9 km/h (3 Bft)
11/05/2023 15:00 21,8 C 50 % 1008,6 hPa 0,0 mm 3,6 km/h (1 Bft) E 0,22 h 0,508 mm 419 W/m 10,9 C 21,8 C 9,7 km/h (2 Bft)
11/05/2023 16:00 20,1 C 56 % 1008,5 hPa 0,0 mm 3,1 km/h (1 Bft) E 0,37 h 0,305 mm 405 W/m 11,0 C 20,1 C 7,8 km/h (2 Bft)
11/05/2023 17:00 21,9 C 49 % 1008,3 hPa 0,0 mm 1,3 km/h (1 Bft) E 0,65 h 0,254 mm 458 W/m 10,8 C 21,9 C 3,3 km/h (1 Bft)
11/05/2023 18:00 19,1 C 55 % 1008,4 hPa 0,0 mm 0,2 km/h (0 Bft) E-SE 0,00 h 0,279 mm 54 W/m 10,0 C 19,1 C 1,4 km/h (1 Bft)
11/05/2023 19:00 17,0 C 61 % 1008,1 hPa 0,0 mm 5,0 km/h (1 Bft) O-NO 0,00 h 0,051 mm 18 W/m 9,5 C 17,0 C 11,5 km/h (2 Bft)
11/05/2023 20:00 14,4 C 78 % 1008,7 hPa 0,6 mm 5,7 km/h (1 Bft) O-NO 0,00 h 0,051 mm 0 W/m 10,5 C 14,4 C 11,3 km/h (2 Bft)
11/05/2023 21:00 12,6 C 86 % 1009,0 hPa 1,0 mm 7,0 km/h (2 Bft) NO 0,00 h 0,025 mm 0 W/m 10,3 C 12,6 C 12,3 km/h (3 Bft)
11/05/2023 22:00 12,0 C 90 % 1008,9 hPa 0,4 mm 3,9 km/h (1 Bft) NO 0,00 h 0,025 mm 0 W/m 10,4 C 12,0 C 6,4 km/h (2 Bft)
11/05/2023 23:00 12,1 C 88 % 1009,2 hPa 0,2 mm 0,9 km/h (0 Bft) S-SO 0,00 h 0,000 mm 0 W/m 10,2 C 12,1 C 1,8 km/h (1 Bft)
12/05/2023 00:00 12,0 C 87 % 1009,5 hPa 0,0 mm 0,0 km/h (0 Bft) N 0,00 h 0,000 mm 0 W/m 9,9 C 12,0 C 0,1 km/h (0 Bft)
12/05/2023 01:00 11,4 C 88 % 1009,7 hPa 0,0 mm 1,7 km/h (1 Bft) S-SO 0,00 h 0,000 mm 0 W/m 9,4 C 11,4 C 3,8 km/h (1 Bft)
12/05/2023 02:00 11,1 C 86 % 1009,5 hPa 0,0 mm 0,5 km/h (0 Bft) O-NO 0,00 h 0,000 mm 0 W/m 9,0 C 11,1 C 1,5 km/h (1 Bft)
12/05/2023 03:00 10,6 C 86 % 1009,3 hPa 0,0 mm 1,3 km/h (1 Bft) NO 0,00 h 0,000 mm 0 W/m 8,4 C 10,6 C 3,1 km/h (1 Bft)
12/05/2023 04:00 10,8 C 84 % 1009,2 hPa 0,0 mm 2,1 km/h (1 Bft) N-NO 0,00 h 0,000 mm 0 W/m 8,2 C 10,8 C 5,2 km/h (1 Bft)
12/05/2023 05:00 11,3 C 80 % 1009,1 hPa 0,0 mm 0,9 km/h (0 Bft) NO 0,00 h 0,025 mm 0 W/m 8,0 C 11,3 C 2,3 km/h (1 Bft)
12/05/2023 06:00 11,3 C 79 % 1009,0 hPa 0,0 mm 0,9 km/h (0 Bft) NO 0,00 h 0,000 mm 14 W/m 7,7 C 11,3 C 1,9 km/h (1 Bft)
12/05/2023 07:00 12,1 C 79 % 1009,3 hPa 0,0 mm 0,3 km/h (0 Bft) NO 0,00 h 0,000 mm 71 W/m 8,6 C 12,1 C 0,9 km/h (0 Bft)
12/05/2023 08:00 13,7 C 78 % 1009,4 hPa 0,0 mm 0,0 km/h (0 Bft) N 0,05 h 0,051 mm 131 W/m 9,9 C 13,7 C 0,0 km/h (0 Bft)
12/05/2023 09:00 17,2 C 68 % 1009,7 hPa 0,0 mm 0,1 km/h (0 Bft) E-SE 0,57 h 0,076 mm 387 W/m 11,2 C 17,2 C 0,2 km/h (0 Bft)
12/05/2023 10:00 18,8 C 61 % 1009,9 hPa 0,0 mm 2,4 km/h (1 Bft) E 0,47 h 0,229 mm 455 W/m 11,1 C 18,8 C 6,2 km/h (2 Bft)
12/05/2023 11:00 17,4 C 74 % 1010,5 hPa 0,0 mm 5,5 km/h (1 Bft) E 0,10 h 0,279 mm 343 W/m 12,8 C 17,4 C 15,1 km/h (3 Bft)
12/05/2023 12:00 15,9 C 79 % 1010,9 hPa 0,0 mm 3,6 km/h (1 Bft) E 0,00 h 0,203 mm 190 W/m 12,2 C 15,9 C 10,7 km/h (2 Bft)
12/05/2023 13:00 15,5 C 79 % 1011,1 hPa 0,0 mm 2,8 km/h (1 Bft) E 0,00 h 0,102 mm 175 W/m 11,9 C 15,5 C 8,8 km/h (2 Bft)
12/05/2023 14:00 15,1 C 83 % 1011,2 hPa 0,2 mm 1,7 km/h (1 Bft) E-SE 0,00 h 0,102 mm 122 W/m 12,2 C 15,1 C 6,4 km/h (2 Bft)
12/05/2023 15:00 15,0 C 80 % 1011,5 hPa 0,0 mm 1,0 km/h (0 Bft) E-SE 0,00 h 0,076 mm 86 W/m 11,6 C 15,0 C 4,3 km/h (1 Bft)
12/05/2023 16:00 15,2 C 85 % 1011,5 hPa 0,2 mm 0,3 km/h (0 Bft) E 0,00 h 0,051 mm 138 W/m 12,7 C 15,2 C 1,8 km/h (1 Bft)
12/05/2023 17:00 16,8 C 75 % 1011,5 hPa 0,0 mm 0,7 km/h (0 Bft) N-NE 0,48 h 0,076 mm 343 W/m 12,2 C 16,8 C 3,9 km/h (1 Bft)
12/05/2023 18:00 18,4 C 64 % 1011,6 hPa 0,0 mm 0,3 km/h (0 Bft) N-NE 0,88 h 0,203 mm 310 W/m 11,5 C 18,4 C 1,8 km/h (1 Bft)
12/05/2023 19:00 16,1 C 71 % 1011,9 hPa 0,0 mm 0,5 km/h (0 Bft) N-NE 0,72 h 0,178 mm 135 W/m 10,9 C 16,1 C 3,1 km/h (1 Bft)
12/05/2023 20:00 14,7 C 75 % 1012,1 hPa 0,0 mm 0,0 km/h (0 Bft) N 0,02 h 0,076 mm 17 W/m 10,4 C 14,7 C 0,1 km/h (0 Bft)
12/05/2023 21:00 13,6 C 80 % 1012,7 hPa 0,0 mm 0,0 km/h (0 Bft) N-NE 0,00 h 0,000 mm 0 W/m 10,3 C 13,6 C 0,5 km/h (0 Bft)
12/05/2023 22:00 12,7 C 89 % 1013,4 hPa 0,4 mm 0,2 km/h (0 Bft) N-NE 0,00 h 0,000 mm 0 W/m 11,0 C 12,7 C 0,7 km/h (0 Bft)
12/05/2023 23:00 11,7 C 92 % 1013,7 hPa 0,2 mm 0,0 km/h (0 Bft) N 0,00 h 0,000 mm 0 W/m 10,4 C 11,7 C 0,0 km/h (0 Bft)
13/05/2023 00:00 11,3 C 93 % 1014,1 hPa 0,0 mm 0,0 km/h (0 Bft) N 0,00 h 0,000 mm 0 W/m 10,2 C 11,3 C 0,0 km/h (0 Bft)
13/05/2023 01:00 10,7 C 93 % 1014,2 hPa 1,4 mm 0,2 km/h (0 Bft) N-NE 0,00 h 0,000 mm 0 W/m 9,6 C 10,7 C 0,9 km/h (0 Bft)
13/05/2023 02:00 10,8 C 95 % 1014,2 hPa 1,0 mm 0,0 km/h (0 Bft) N 0,00 h 0,000 mm 0 W/m 10,0 C 10,8 C 0,2 km/h (0 Bft)
13/05/2023 03:00 10,7 C 95 % 1014,2 hPa 0,2 mm 0,1 km/h (0 Bft) N-NE 0,00 h 0,000 mm 0 W/m 10,0 C 10,7 C 0,3 km/h (0 Bft)
13/05/2023 04:00 10,5 C 96 % 1014,4 hPa 0,4 mm 0,0 km/h (0 Bft) N-NE 0,00 h 0,000 mm 0 W/m 9,9 C 10,5 C 0,1 km/h (0 Bft)
13/05/2023 05:00 10,5 C 97 % 1014,2 hPa 0,2 mm 0,1 km/h (0 Bft) N-NE 0,00 h 0,000 mm 0 W/m 10,0 C 10,5 C 0,4 km/h (0 Bft)
13/05/2023 06:00 10,3 C 97 % 1014,4 hPa 0,0 mm 0,0 km/h (0 Bft) N 0,00 h 0,000 mm 17 W/m 9,9 C 10,3 C 0,2 km/h (0 Bft)
13/05/2023 07:00 10,8 C 97 % 1014,8 hPa 0,2 mm 0,0 km/h (0 Bft) N 0,35 h 0,000 mm 110 W/m 10,4 C 10,8 C 0,0 km/h (0 Bft)
13/05/2023 08:00 12,6 C 98 % 1015,1 hPa 0,0 mm 0,0 km/h (0 Bft) N-NE 0,22 h 0,051 mm 164 W/m 12,2 C 12,6 C 0,1 km/h (0 Bft)
13/05/2023 09:00 15,4 C 88 % 1015,2 hPa 0,0 mm 0,4 km/h (0 Bft) N-NE 1,00 h 0,076 mm 512 W/m 13,4 C 15,4 C 2,0 km/h (1 Bft)
13/05/2023 10:00 18,1 C 74 % 1015,2 hPa 0,0 mm 1,3 km/h (1 Bft) E 0,78 h 0,279 mm 598 W/m 13,4 C 18,1 C 4,4 km/h (1 Bft)
13/05/2023 11:00 19,0 C 69 % 1015,4 hPa 0,0 mm 3,7 km/h (1 Bft) E 0,82 h 0,330 mm 767 W/m 13,2 C 19,0 C 9,6 km/h (2 Bft)
13/05/2023 12:00 19,7 C 63 % 1015,3 hPa 0,0 mm 3,9 km/h (1 Bft) E 0,92 h 0,432 mm 897 W/m 12,5 C 19,7 C 9,2 km/h (2 Bft)
13/05/2023 13:00 20,3 C 60 % 1014,9 hPa 0,0 mm 3,6 km/h (1 Bft) E-SE 0,97 h 0,508 mm 944 W/m 12,3 C 20,3 C 8,9 km/h (2 Bft)
13/05/2023 14:00 20,5 C 61 % 1014,8 hPa 0,0 mm 4,2 km/h (1 Bft) E 0,88 h 0,533 mm 856 W/m 12,8 C 20,5 C 10,3 km/h (2 Bft)
13/05/2023 15:00 20,6 C 58 % 1014,7 hPa 0,0 mm 3,1 km/h (1 Bft) E 1,00 h 0,533 mm 818 W/m 12,0 C 20,6 C 8,3 km/h (2 Bft)
13/05/2023 16:00 21,1 C 56 % 1014,3 hPa 0,0 mm 1,4 km/h (1 Bft) S 1,00 h 0,483 mm 681 W/m 11,9 C 21,1 C 4,9 km/h (1 Bft)
13/05/2023 17:00 20,1 C 57 % 1013,8 hPa 0,0 mm 1,6 km/h (1 Bft) S-SE 0,87 h 0,406 mm 465 W/m 11,3 C 20,1 C 4,6 km/h (1 Bft)
13/05/2023 18:00 19,4 C 58 % 1013,8 hPa 0,0 mm 1,3 km/h (1 Bft) SE 0,85 h 0,279 mm 290 W/m 10,8 C 19,4 C 4,5 km/h (1 Bft)
13/05/2023 19:00 17,4 C 69 % 1014,2 hPa 0,0 mm 0,6 km/h (0 Bft) E 0,52 h 0,178 mm 119 W/m 11,7 C 17,4 C 2,2 km/h (1 Bft)
13/05/2023 20:00 16,1 C 77 % 1014,5 hPa 0,0 mm 0,0 km/h (0 Bft) N 0,00 h 0,076 mm 12 W/m 12,0 C 16,1 C 0,0 km/h (0 Bft)
13/05/2023 21:00 15,1 C 81 % 1014,9 hPa 0,0 mm 0,0 km/h (0 Bft) N 0,00 h 0,000 mm 0 W/m 11,8 C 15,1 C 0,0 km/h (0 Bft)
13/05/2023 22:00 14,6 C 82 % 1015,0 hPa 0,0 mm 0,0 km/h (0 Bft) N 0,00 h 0,000 mm 0 W/m 11,4 C 14,6 C 0,0 km/h (0 Bft)
13/05/2023 23:00 13,5 C 80 % 1014,8 hPa 0,0 mm 1,8 km/h (1 Bft) E-SE 0,00 h 0,025 mm 0 W/m 10,1 C 13,5 C 4,7 km/h (1 Bft)
14/05/2023 00:00 12,7 C 77 % 1014,2 hPa 0,0 mm 2,2 km/h (1 Bft) O-NO 0,00 h 0,025 mm 0 W/m 8,8 C 12,7 C 5,2 km/h (1 Bft)
14/05/2023 01:00 12,0 C 78 % 1013,6 hPa 0,0 mm 0,2 km/h (0 Bft) O-NO 0,00 h 0,025 mm 0 W/m 8,3 C 12,0 C 0,6 km/h (0 Bft)
14/05/2023 02:00 11,6 C 77 % 1012,9 hPa 0,0 mm 0,0 km/h (0 Bft) N 0,00 h 0,025 mm 0 W/m 7,8 C 11,6 C 0,1 km/h (0 Bft)
14/05/2023 03:00 11,4 C 76 % 1012,5 hPa 0,0 mm 0,1 km/h (0 Bft) O-NO 0,00 h 0,025 mm 0 W/m 7,3 C 11,4 C 0,1 km/h (0 Bft)
14/05/2023 04:00 11,2 C 78 % 1012,4 hPa 0,0 mm 0,0 km/h (0 Bft) N 0,00 h 0,025 mm 0 W/m 7,5 C 11,2 C 0,0 km/h (0 Bft)
14/05/2023 05:00 11,0 C 79 % 1012,3 hPa 0,0 mm 0,0 km/h (0 Bft) N 0,00 h 0,025 mm 0 W/m 7,5 C 11,0 C 0,0 km/h (0 Bft)
14/05/2023 06:00 11,4 C 77 % 1012,3 hPa 0,0 mm 0,0 km/h (0 Bft) N 0,00 h 0,000 mm 12 W/m 7,6 C 11,4 C 0,1 km/h (0 Bft)
14/05/2023 07:00 12,3 C 76 % 1012,4 hPa 0,0 mm 0,0 km/h (0 Bft) N 0,00 h 0,000 mm 78 W/m 8,2 C 12,3 C 0,0 km/h (0 Bft)
14/05/2023 08:00 13,5 C 75 % 1012,4 hPa 0,0 mm 0,0 km/h (0 Bft) N 0,00 h 0,051 mm 124 W/m 9,2 C 13,5 C 0,0 km/h (0 Bft)
14/05/2023 09:00 15,8 C 69 % 1012,3 hPa 0,0 mm 0,0 km/h (0 Bft) N 0,23 h 0,076 mm 282 W/m 10,1 C 15,8 C 0,0 km/h (0 Bft)
14/05/2023 10:00 17,2 C 64 % 1012,0 hPa 0,0 mm 0,0 km/h (0 Bft) N 0,17 h 0,152 mm 328 W/m 10,5 C 17,2 C 0,0 km/h (0 Bft)
14/05/2023 11:00 18,6 C 60 % 1011,9 hPa 0,0 mm 1,2 km/h (1 Bft) S-SO 0,57 h 0,178 mm 484 W/m 10,6 C 18,6 C 3,2 km/h (1 Bft)
14/05/2023 12:00 20,1 C 56 % 1011,6 hPa 0,0 mm 3,7 km/h (1 Bft) E 0,93 h 0,279 mm 819 W/m 11,0 C 20,1 C 8,8 km/h (2 Bft)
14/05/2023 13:00 20,6 C 57 % 1011,0 hPa 0,0 mm 5,7 km/h (1 Bft) S 0,73 h 0,508 mm 817 W/m 11,8 C 20,6 C 12,3 km/h (3 Bft)
14/05/2023 14:00 21,2 C 58 % 1010,8 hPa 0,0 mm 5,3 km/h (1 Bft) S 0,50 h 0,508 mm 681 W/m 12,7 C 21,2 C 11,2 km/h (2 Bft)
14/05/2023 15:00 18,4 C 66 % 1010,9 hPa 0,0 mm 5,3 km/h (1 Bft) S-SE 0,05 h 0,406 mm 228 W/m 11,8 C 18,4 C 9,7 km/h (2 Bft)
14/05/2023 16:00 19,1 C 65 % 1010,5 hPa 0,0 mm 1,5 km/h (1 Bft) SO 0,63 h 0,152 mm 569 W/m 12,3 C 19,1 C 4,3 km/h (1 Bft)
14/05/2023 17:00 20,1 C 60 % 1009,8 hPa 0,0 mm 2,9 km/h (1 Bft) SO 0,95 h 0,330 mm 489 W/m 12,2 C 20,1 C 7,4 km/h (2 Bft)
14/05/2023 18:00 18,9 C 66 % 1009,3 hPa 0,0 mm 1,5 km/h (1 Bft) S-SO 0,15 h 0,305 mm 115 W/m 12,3 C 18,9 C 4,2 km/h (1 Bft)
14/05/2023 19:00 17,5 C 72 % 1009,2 hPa 0,0 mm 0,0 km/h (0 Bft) N 0,00 h 0,076 mm 48 W/m 12,3 C 17,5 C 0,0 km/h (0 Bft)
14/05/2023 20:00 16,2 C 76 % 1009,3 hPa 0,0 mm 0,0 km/h (0 Bft) N 0,00 h 0,025 mm 17 W/m 11,9 C 16,2 C 0,0 km/h (0 Bft)
14/05/2023 21:00 14,9 C 80 % 1009,2 hPa 0,0 mm 0,0 km/h (0 Bft) O-SO 0,00 h 0,000 mm 0 W/m 11,4 C 14,9 C 0,2 km/h (0 Bft)
14/05/2023 22:00 14,5 C 84 % 1009,4 hPa 0,0 mm 0,0 km/h (0 Bft) N 0,00 h 0,000 mm 0 W/m 11,7 C 14,5 C 0,0 km/h (0 Bft)
14/05/2023 23:00 13,7 C 87 % 1009,7 hPa 0,0 mm 0,0 km/h (0 Bft) N 0,00 h 0,025 mm 0 W/m 11,5 C 13,7 C 0,2 km/h (0 Bft)
Min-Date _ 13/05/23 11/05/23 10/05/23 - 08/05/23 - - - - 14/05/23 13/05/23 08/05/23
_ Min-Heure 06:46 13:45 05:45 - 00:00 - - - - 04:45 06:46 00:00
Minimum _ 10,2 C 41 % 1007,5 hPa - 0,0 km/h (0 Bft) - - - - 7,3 C 10,2 C 0,0 km/h (0 Bft)
Max-Date _ 09/05/23 13/05/23 08/05/23 13/05/23 11/05/23 - 08/05/23 11/05/23 11/05/23 09/05/23 09/05/23 11/05/23
_ Max-Heure 14:33 07:37 22:00 01:48 13:16 - 08:55 14:00 14:24 13:52 14:33 13:25
Maximum _ 25,3 C 98 % 1017,6 hPa 1,4 mm 19,3 km/h
S (3 Bft)
- 0,02 h 0,635 mm 1157 W/m 17,9 C 25,3 C 30,6 km/h
S-SE (5 Bft)
Moyenne _ 16,8 C 74 % 1012,2 hPa #7,0 mm 1,5 km/h (1 Bft) E #46:11 h #24,448 mm 367 W/m 11,8 C 16,8 C 3,7 km/h (1 Bft)
Roquefort les pins